Flight Track Log - Related Links

Times and Time Zones

All times are in EDT time to prevent confusion due to time zone crossing. See the VP-BLX flight status page for this flight to view local times or setup timezone preferences in your user account.

Time Position Orientation Groundspeed Altitude Reporting Facility
EDT Latitude Longitude Course Direction KTS MPH feet Rate Location/Type
Sun 09:23:29 PM 23.2781 -82.0503 54° Northeast 450 518 11,400  Level Miami Center
Sun 09:24:29 PM 23.3500 -81.9628 48° Northeast 399 459 13,300 1,950 Climbing Miami Center
Sun 09:25:00 PM 25.7298 -80.1680 39° Northeast  Level FlightAware Approximate
Sun 09:25:29 PM 23.4261 -81.8731 47° Northeast 393 452 15,300  Level Miami Center
Sun 09:26:00 PM 25.8132 -80.0520 54° Northeast  Level FlightAware Approximate
Sun 09:26:29 PM 23.5042 -81.7903 44° Northeast 393 452 17,300  Level Miami Center
Sun 09:27:00 PM 25.8915 -79.9305 54° Northeast  Level FlightAware Approximate
Sun 09:27:29 PM 23.5844 -81.6936 48° Northeast 406 467 18,800  Level Miami Center
Sun 09:28:29 PM 23.6689 -81.5994 46° Northeast 420 483 20,400 1,750 Climbing Miami Center
Sun 09:29:29 PM 23.7533 -81.5003 47° Northeast 432 497 22,300 1,550 Climbing Miami Center
Sun 09:30:29 PM 23.8486 -81.3903 47° Northeast 438 504 23,500 850 Climbing Miami Center
Sun 09:31:29 PM 23.9392 -81.2958 44° Northeast 443 510 24,000 400 Climbing Miami Center
Sun 09:32:29 PM 24.0478 -81.2269 30° Northeast 443 510 24,300 800 Climbing Miami Center
Sun 09:33:29 PM 24.1583 -81.1581 30° Northeast 443 510 25,600 1,250 Climbing Miami Center
Sun 09:34:29 PM 24.2711 -81.0889 29° Northeast 454 522 26,800 1,200 Climbing Miami Center
Sun 09:35:29 PM 24.3839 -81.0175 30° Northeast 454 522 28,000 1,150 Climbing Miami Center
Sun 09:36:29 PM 24.4983 -80.9506 28° Northeast 459 528 29,100 1,200 Climbing Miami Center
Sun 09:37:29 PM 24.6133 -80.8767 30° Northeast 465 535 30,400 1,250 Climbing Miami Center
Sun 09:38:29 PM 24.7258 -80.8050 30° Northeast 465 535 31,600 1,100 Climbing Miami Center
Sun 09:39:29 PM 24.8383 -80.7331 30° Northeast 465 535 32,600 1,100 Climbing Miami Center
Sun 09:40:29 PM 24.9511 -80.6631 29° Northeast 465 535 33,800 1,150 Climbing Miami Center
Sun 09:41:29 PM 25.0633 -80.5978 28° Northeast 465 535 34,900 600 Climbing Miami Center
Sun 09:42:29 PM 25.1697 -80.5253 32° Northeast 460 529 35,000 50 Climbing Miami Center
Sun 09:43:29 PM 25.2694 -80.4617 30° Northeast 455 524 35,000  Level Miami Center
Sun 09:44:30 PM 25.3797 -80.3914 30° Northeast 450 518 35,000  Level Miami Center
Sun 09:45:30 PM 25.4900 -80.3186 31° Northeast 450 518 35,000  Level Miami Center
Sun 09:46:29 PM 25.6003 -80.2481 30° Northeast 450 518 35,000  Level Miami Center
Sun 09:47:32 PM 25.7086 -80.1728 32° Northeast 450 518 35,000  Level Miami Center
Sun 09:48:29 PM 25.8028 -80.0739 43° Northeast 455 524 35,000  Level Miami Center
Sun 09:49:31 PM 25.8825 -79.9558 53° Northeast 460 529 35,000  Level Miami Center
Sun 09:50:31 PM 25.9603 -79.8378 54° Northeast 465 535 35,000  Level Miami Center
Sun 09:51:31 PM 26.0397 -79.7194 53° Northeast 471 542 35,000  Level Miami Center
Sun 09:52:32 PM 26.1111 -79.5986 57° Northeast 471 542 35,000  Level Miami Center
Sun 09:53:29 PM 26.1825 -79.4544 61° Northeast 471 542 35,000  Level Miami Center
Sun 09:54:31 PM 26.2411 -79.3353 61° Northeast 476 548 35,000  Level Miami Center
Sun 10:00:14 PM 26.8842 -78.9966 19° North 442 509 35,000  Level FlightAware ADS-B
Sun 10:03:18 PM 27.2467 -78.8572 19° North 447 514 35,000  Level FlightAware ADS-B
Sun 10:03:49 PM 27.3071 -78.8338 19° North 447 514 35,000  Level FlightAware ADS-B
Sun 10:04:29 PM 27.3798 -78.8062 17° North 445 512 35,000  Level FlightAware ADS-B
Sun 10:05:04 PM 27.4542 -78.7870 North 440 506 35,000  Level FlightAware ADS-B
Sun 10:05:37 PM 27.5230 -78.7757 North 440 506 35,000  Level FlightAware ADS-B
Sun 10:09:10 PM 27.9518 -78.7007 North 444 511 35,000  Level FlightAware ADS-B
Sun 10:09:40 PM 28.0018 -78.6918 North 444 511 35,000  Level FlightAware ADS-B
Sun 10:10:58 PM 28.1726 -78.6617 North 443 510 35,000  Level FlightAware ADS-B
Sun 10:11:30 PM 28.2308 -78.6569 North 440 506 35,000  Level Miami Center
Sun 10:12:31 PM 28.3544 -78.6331 10° North 445 512 35,000  Level Miami Center
Sun 10:13:32 PM 28.4778 -78.6136 North 445 512 35,000  Level Miami Center
Sun 10:14:29 PM 28.5950 -78.5919 North 445 512 35,000  Level Miami Center
Sun 10:15:30 PM 28.7183 -78.5725 North 437 503 35,000  Level Miami Center
Sun 10:16:31 PM 28.8375 -78.5506 North 437 503 35,000  Level Miami Center
Sun 10:17:32 PM 28.9608 -78.5311 North 431 496 35,000  Level Miami Center
Sun 10:18:30 PM 29.0778 -78.5092 North 430 495 35,000  Level Miami Center
Sun 10:19:30 PM 29.1972 -78.4872 North 424 488 35,000  Level Miami Center
Sun 10:20:32 PM 29.3142 -78.4675 North 431 496 35,000  Level Miami Center
Sun 10:21:31 PM 29.4353 -78.4453 North 423 487 35,000  Level Miami Center
Sun 10:22:32 PM 29.5525 -78.4208 10° North 430 495 35,000  Level Miami Center
Sun 10:23:14 PM 29.6319 -78.3939 16° North 425 489 35,000  Level Jacksonville Center
Sun 10:24:14 PM 29.7442 -78.3792 North 445 512 35,000  Level Jacksonville Center
Sun 10:25:14 PM 29.8622 -78.3569 North 439 505 35,000  Level Jacksonville Center
Sun 10:26:14 PM 29.9847 -78.3367 North 434 499 35,000  Level Jacksonville Center
Sun 10:27:14 PM 30.1006 -78.3072 12° North 426 490 35,000  Level Jacksonville Center
Sun 10:28:14 PM 30.2203 -78.2703 15° North 426 490 35,000  Level Jacksonville Center
Sun 10:29:14 PM 30.3336 -78.2289 17° North 432 497 35,000  Level Jacksonville Center
Sun 10:30:14 PM 30.4553 -78.1914 15° North 432 497 35,000  Level Jacksonville Center
Sun 10:31:14 PM 30.5689 -78.1544 16° North 426 490 35,000  Level Jacksonville Center
Sun 10:32:14 PM 30.6864 -78.1150 16° North 433 498 35,000  Level Jacksonville Center
Sun 10:33:14 PM 30.8017 -78.0753 16° North 433 498 35,000  Level Jacksonville Center
Sun 10:34:14 PM 30.9192 -78.0378 15° North 428 493 35,000  Level Jacksonville Center
Sun 10:35:14 PM 31.0508 -77.9875 18° North 441 507 35,000  Level Jacksonville Center
Sun 10:36:14 PM 31.1664 -77.9497 16° North 429 494 35,000  Level Jacksonville Center
Sun 10:37:14 PM 31.2836 -77.9094 16° North 437 503 35,000  Level Jacksonville Center
Sun 10:38:14 PM 31.3989 -77.8669 17° North 432 497 35,000  Level Jacksonville Center
Sun 10:39:14 PM 31.5142 -77.8289 16° North 428 493 35,000  Level Jacksonville Center
Sun 10:40:14 PM 31.6300 -77.8008 12° North 426 490 35,000  Level Jacksonville Center
Sun 10:41:14 PM 31.7431 -77.7556 19° North 448 516 35,000  Level Jacksonville Center
Sun 10:42:14 PM 31.8603 -77.7147 16° North 432 497 35,000  Level Jacksonville Center
Sun 10:43:14 PM 31.9758 -77.6789 15° North 432 497 35,000  Level Jacksonville Center
Sun 10:44:14 PM 32.0911 -77.6428 15° North 432 497 35,000  Level Jacksonville Center
Sun 10:45:14 PM 32.2064 -77.6019 17° North 427 491 35,000  Level Jacksonville Center
Sun 10:46:14 PM 32.3194 -77.5608 17° North 427 491 35,000  Level Jacksonville Center
Sun 10:47:14 PM 32.4325 -77.5247 15° North 427 491 35,000  Level Jacksonville Center
Sun 10:48:14 PM 32.5458 -77.4861 16° North 427 491 35,000  Level Jacksonville Center
Sun 10:49:14 PM 32.6608 -77.4472 16° North 427 491 35,000  Level Jacksonville Center
Sun 10:50:14 PM 32.7742 -77.4106 15° North 427 491 35,000  Level Jacksonville Center
Sun 10:51:24 PM 32.8858 -77.3728 16° North 425 489 35,000  Level Washington Center
Sun 10:52:24 PM 32.9992 -77.3344 16° North 426 490 35,000  Level Washington Center
Sun 10:53:26 PM 33.1353 -77.2878 16° North 425 489 35,000  Level Washington Center
Sun 10:54:29 PM 33.2481 -77.2481 16° North 425 489 35,000  Level Washington Center
Sun 10:55:30 PM 33.3617 -77.2092 16° North 425 489 35,000  Level Washington Center
Sun 10:56:31 PM 33.4747 -77.1681 17° North 426 490 35,000  Level Washington Center
Sun 10:57:32 PM 33.5872 -77.1281 16° North 425 489 35,000  Level Washington Center
Sun 10:58:33 PM 33.7006 -77.0889 16° North 425 489 35,000  Level Washington Center
Sun 10:59:37 PM 33.8361 -77.0408 16° North 426 490 35,000  Level Washington Center
Sun 11:00:38 PM 33.9483 -77.0003 17° North 426 490 35,000  Level Washington Center
Sun 11:01:38 PM 34.0631 -76.9592 17° North 428 493 35,000  Level Washington Center
Sun 11:02:40 PM 34.1778 -76.9183 16° North 430 495 35,000  Level Washington Center
Sun 11:03:43 PM 34.2942 -76.8772 16° North 431 496 35,000  Level Washington Center
Sun 11:04:44 PM 34.4111 -76.8344 17° North 438 504 35,000  Level Washington Center
Sun 11:05:45 PM 34.5286 -76.7928 16° North 438 504 35,000  Level Washington Center
Sun 11:06:46 PM 34.6700 -76.7414 17° North 440 506 35,000  Level Washington Center
Sun 11:07:47 PM 34.7864 -76.6989 17° North 441 507 35,000  Level Washington Center
Sun 11:08:50 PM 34.9047 -76.6564 16° North 441 507 35,000  Level Washington Center
Sun 11:09:52 PM 35.0239 -76.6139 16° North 444 511 35,000  Level Washington Center
Sun 11:10:53 PM 35.1547 -76.5647 17° North 444 511 35,000  Level Washington Center
Sun 11:11:54 PM 35.2744 -76.5214 16° North 447 514 35,000  Level Washington Center
Sun 11:12:54 PM 35.3747 -76.4839 17° North 448 516 35,000  Level Washington Center
Sun 11:13:57 PM 35.5200 -76.4306 17° North 448 516 35,000  Level Washington Center
Sun 11:14:58 PM 35.6403 -76.3858 17° North 449 517 35,000  Level Washington Center
Sun 11:15:58 PM 35.7606 -76.3428 16° North 449 517 35,000 639 Level Washington Center
Sun 11:17:00 PM 35.8769 -76.2828 23° Northeast 454 522 36,300 968 Climbing Washington Center
Sun 11:18:02 PM 35.9847 -76.2044 30° Northeast 450 518 37,000 341 Climbing Washington Center
Sun 11:19:03 PM 36.0928 -76.1247 31° Northeast 452 520 37,000  Level Washington Center
Sun 11:20:04 PM 36.2039 -76.0453 30° Northeast 457 526 37,000  Level Washington Center
Sun 11:21:05 PM 36.3117 -75.9636 31° Northeast 459 528 37,000  Level Washington Center
Sun 11:22:07 PM 36.4206 -75.8839 30° Northeast 458 527 37,000  Level Washington Center
Sun 11:23:05 PM 36.5517 -75.7872 31° Northeast 458 527 37,000  Level Washington Center
Sun 11:24:07 PM 36.6622 -75.7058 31° Northeast 464 534 37,000  Level Washington Center
Sun 11:25:10 PM 36.7711 -75.6236 31° Northeast 464 534 37,000  Level Washington Center
Sun 11:26:11 PM 36.8811 -75.5419 31° Northeast 464 534 37,000  Level Washington Center
Sun 11:27:12 PM 36.9908 -75.4606 31° Northeast 464 534 37,000  Level Washington Center
Sun 11:28:12 PM 37.1011 -75.3769 31° Northeast 464 534 37,000  Level Washington Center
Sun 11:29:14 PM 37.2108 -75.2942 31° Northeast 464 534 37,000  Level Washington Center
Sun 11:30:15 PM 37.3222 -75.2097 31° Northeast 464 534 37,000  Level Washington Center
Sun 11:31:16 PM 37.4561 -75.1103 31° Northeast 467 537 37,000  Level Washington Center
Sun 11:32:16 PM 37.5664 -75.0247 32° Northeast 467 537 37,000  Level Washington Center
Sun 11:33:15 PM 37.6769 -74.9403 31° Northeast 467 537 37,000  Level Washington Center
Sun 11:34:19 PM 37.7886 -74.8556 31° Northeast 467 537 37,000  Level Washington Center
Sun 11:35:20 PM 37.8983 -74.7706 31° Northeast 466 536 37,000  Level Washington Center
Sun 11:36:20 PM 38.0097 -74.6864 31° Northeast 466 536 37,000  Level Washington Center
Sun 11:37:21 PM 38.1294 -74.5919 32° Northeast 466 536 37,000  Level Washington Center
Sun 11:40:41 PM 38.5358 -74.2733 32° Northeast 470 541 37,000  Level FlightAware ADS-B (KWWD)
Sun 11:43:57 PM 38.8560 -74.0196 32° Northeast 470 541 37,000  Level FlightAware ADS-B (KPHL)
Sun 11:44:30 PM 38.9315 -73.9594 32° Northeast 469 540 37,000  Level FlightAware ADS-B (KPHL)
Sun 11:45:16 PM 39.0148 -73.8928 32° Northeast 470 541 37,000  Level FlightAware ADS-B (KPHL)
Sun 11:46:16 PM 39.1251 -73.8043 32° Northeast 472 543 37,000  Level FlightAware ADS-B (KPHL)
Sun 11:47:01 PM 39.2064 -73.7388 32° Northeast 475 547 37,000  Level FlightAware ADS-B (KPHL)
Sun 11:47:45 PM 39.2764 -73.6825 32° Northeast 474 545 37,000  Level Boston Center
Sun 11:48:29 PM 39.3414 -73.6297 32° Northeast 470 541 37,000  Level Washington Center
Sun 11:49:30 PM 39.4511 -73.5400 32° Northeast 470 541 37,000  Level Washington Center
Sun 11:50:30 PM 39.5831 -73.4328 32° Northeast 468 539 37,000  Level Washington Center
Sun 11:51:31 PM 39.6886 -73.3456 32° Northeast 468 539 37,000  Level Washington Center
Sun 11:52:31 PM 39.7981 -73.2542 33° Northeast 468 539 37,000  Level Washington Center
Sun 11:53:30 PM 39.9075 -73.1647 32° Northeast 468 539 37,000  Level Washington Center
Sun 11:54:32 PM 40.0153 -73.0744 33° Northeast 465 535 37,000  Level Washington Center
Sun 11:55:33 PM 40.1236 -72.9856 32° Northeast 462 532 37,000  Level Washington Center
Sun 11:56:33 PM 40.2308 -72.8961 32° Northeast 462 532 37,000  Level Washington Center
Sun 11:57:35 PM 40.3392 -72.8075 32° Northeast 461 531 37,000  Level Washington Center
Sun 11:58:34 PM 40.4522 -72.7333 27° Northeast 457 526 37,000  Level Washington Center
Sun 11:59:35 PM 40.5639 -72.6572 27° Northeast 457 526 37,000  Level Washington Center
Mon 12:04:47 AM 41.1559 -72.2428 28° Northeast 443 510 37,000  Level FlightAware ADS-B
Mon 12:08:24 AM 41.5430 -71.9682 28° Northeast 435 501 37,000  Level FlightAware ADS-B
Mon 12:08:58 AM 41.6074 -71.9222 28° Northeast 434 499 37,000  Level FlightAware ADS-B (KOWD)
Mon 12:09:12 AM 41.6089 -71.9212 28° Northeast 434 499 37,000  Level FlightAware ADS-B (KOWD)
Mon 12:09:53 AM 41.7057 -71.8519 29° Northeast 427 491 37,000  Level FlightAware ADS-B (KASH)
Mon 12:10:39 AM 41.7645 -71.8096 28° Northeast 435 501 37,000  Level FlightAware ADS-B (ESTA / AGH)
Mon 12:13:39 AM 42.1063 -71.5621 28° Northeast 437 503 37,000  Level FlightAware ADS-B (KASH)
Mon 12:14:10 AM 42.1606 -71.5227 29° Northeast 438 504 37,000  Level FlightAware ADS-B (KASH)
Mon 12:14:40 AM 42.2146 -71.4832 28° Northeast 439 505 37,000  Level FlightAware ADS-B (KASH)
Mon 12:15:10 AM 42.2667 -71.4450 29° Northeast 425 489 37,000  Level FlightAware ADS-B (KASH)
Mon 12:15:40 AM 42.3190 -71.4066 29° Northeast 420 483 37,000  Level FlightAware ADS-B (KASH)
Mon 12:16:21 AM 42.3899 -71.3545 29° Northeast 426 490 37,000  Level FlightAware ADS-B (KBOS)
Mon 12:16:51 AM 42.4426 -71.3158 29° Northeast 426 490 37,000  Level FlightAware ADS-B (KBOS)
Mon 12:17:24 AM 42.5007 -71.2729 29° Northeast 420 483 37,000  Level FlightAware ADS-B (KASH)
Mon 12:17:54 AM 42.5518 -71.2351 29° Northeast 423 487 37,000  Level FlightAware ADS-B (KASH)
Mon 12:18:25 AM 42.6057 -71.1952 29° Northeast 423 487 37,000  Level FlightAware ADS-B (KASH)
Mon 12:18:55 AM 42.6573 -71.1569 29° Northeast 423 487 37,000  Level FlightAware ADS-B (KASH)
Mon 12:19:31 AM 42.7215 -71.1091 29° Northeast 431 496 37,000  Level FlightAware ADS-B (KBOS)
Mon 12:25:10 AM 43.3191 -70.6589 29° Northeast 436 502 37,000  Level FlightAware ADS-B (KBOS)
Mon 12:25:40 AM 43.3732 -70.6176 30° Northeast 429 494 37,000  Level FlightAware ADS-B (KASH)
Mon 12:25:54 AM 43.3980 -70.5987 30° Northeast 430 495 37,000  Level FlightAware ADS-B (KASH)
Mon 12:26:25 AM 43.4517 -70.5576 29° Northeast 446 513 37,000  Level FlightAware ADS-B (KBOS)
Mon 12:27:09 AM 43.5330 -70.4952 30° Northeast 446 513 37,000  Level FlightAware ADS-B (KASH)
Mon 12:27:39 AM 43.5885 -70.4525 30° Northeast 443 510 37,000  Level FlightAware ADS-B (KASH)
Mon 12:36:04 AM 44.4628 -69.7683 30° Northeast 424 488 37,000  Level Boston Center
Mon 12:37:00 AM 44.6434 -69.6111 30° Northeast  Level FlightAware Approximate
Mon 12:38:00 AM 44.7565 -69.5205 30° Northeast  Level FlightAware Approximate
Mon 12:39:00 AM 44.8694 -69.4296 30° Northeast  Level FlightAware Approximate
Mon 12:40:00 AM 44.9823 -69.3383 30° Northeast  Level FlightAware Approximate
Mon 12:41:00 AM 45.0951 -69.2466 30° Northeast  Level FlightAware Approximate
Mon 12:41:26 AM 45.0183 -69.3205 30° Northeast 428 493 37,000  Level FlightAware ADS-B (WASR / MKW)
Mon 12:41:57 AM 45.0668 -69.2809 30° Northeast 429 494 37,000  Level FlightAware ADS-B (WASR / MKW)
Mon 12:42:27 AM 45.1220 -69.2358 30° Northeast 429 494 37,000  Level FlightAware ADS-B (WASR / MKW)
Mon 12:42:57 AM 45.1747 -69.1927 30° Northeast 429 494 37,000  Level FlightAware ADS-B (WASR / MKW)
Mon 12:43:28 AM 45.2278 -69.1491 30° Northeast 429 494 37,000  Level FlightAware ADS-B (WASR / MKW)
Mon 12:44:03 AM 45.2867 -69.1006 30° Northeast 430 495 37,000  Level FlightAware ADS-B (WASR / MKW)
Mon 01:00:09 AM 46.9242 -67.7025 32° Northeast 441 507 37,000  Level Boston Center
Mon 01:01:00 AM 47.1739 -67.4738 31° Northeast  Level FlightAware Approximate
Mon 01:01:09 AM 47.0275 -67.6111 31° Northeast 437 503 37,000  Level Boston Center
Mon 01:02:00 AM 47.2845 -67.3743 31° Northeast  Level FlightAware Approximate
Mon 01:02:09 AM 47.1319 -67.5186 31° Northeast 437 503 37,000  Level Boston Center
Mon 01:03:00 AM 47.3947 -67.2738 32° Northeast  Level FlightAware Approximate
Mon 01:03:09 AM 47.2356 -67.4236 32° Northeast 438 504 37,000  Level Boston Center
Mon 01:13:37 AM 48.3167 -66.3833 33° Northeast 440 506 37,000  Level Moncton Center
Mon 01:14:00 AM 48.4133 -66.3001 33° Northeast  Level FlightAware Approximate
Mon 01:14:37 AM 48.4000 -66.2833 39° Northeast 440 506 37,000  Level Moncton Center
Mon 01:15:00 AM 48.5213 -66.1941 33° Northeast  Level FlightAware Approximate
Mon 01:15:37 AM 48.5167 -66.2000 25° Northeast 440 506 37,000  Level Moncton Center
Mon 01:16:00 AM 48.6292 -66.0876 33° Northeast  Level FlightAware Approximate
Mon 01:16:37 AM 48.6167 -66.1000 33° Northeast 440 506 37,000  Level Moncton Center
Mon 01:17:00 AM 48.7370 -65.9806 33° Northeast  Level FlightAware Approximate
Mon 01:17:37 AM 48.7333 -65.9667 37° Northeast 450 518 37,000  Level Moncton Center
Mon 01:18:00 AM 48.8448 -65.8732 33° Northeast  Level FlightAware Approximate
Mon 01:18:37 AM 48.8333 -65.8667 33° Northeast 440 506 37,000  Level Moncton Center
Mon 01:19:37 AM 48.9333 -65.7667 33° Northeast 440 506 37,000  Level Moncton Center
Mon 01:20:37 AM 49.0167 -65.6500 43° Northeast 440 506 37,000  Level Moncton Center
Mon 01:21:37 AM 49.1333 -65.5500 29° Northeast 440 506 37,000 -50 Level Moncton Center
Mon 01:22:37 AM 49.2167 -65.4500 38° Northeast 440 506 36,900 -197 Descending Moncton Center
Mon 01:26:42 AM 49.6167 -65.0000 36° Northeast 450 518 36,000 -180 Descending Gander Center
Mon 01:27:37 AM 49.7000 -64.8833 42° Northeast 450 518 36,000  Level Moncton Center
Mon 01:28:37 AM 49.8333 -64.7667 29° Northeast 450 518 36,000  Level Moncton Center
Mon 01:29:37 AM 49.9167 -64.6500 42° Northeast 450 518 36,000  Level Moncton Center
Mon 01:30:37 AM 50.0333 -64.5333 33° Northeast 450 518 36,000  Level Moncton Center
Mon 01:31:00 AM 50.0949 -64.4391 36° Northeast  Level FlightAware Approximate
Mon 01:31:37 AM 50.1167 -64.4167 42° Northeast 450 518 36,000  Level Moncton Center
Mon 01:32:37 AM 50.2333 -64.3000 33° Northeast 450 518 36,000  Level Moncton Center
Mon 01:33:37 AM 50.3167 -64.1833 42° Northeast 450 518 36,000  Level Moncton Center
Mon 01:34:37 AM 50.4333 -64.0500 36° Northeast 450 518 36,000  Level Moncton Center
Mon 01:35:37 AM 50.5333 -63.9500 32° Northeast 460 529 36,000  Level Moncton Center
Mon 01:36:37 AM 50.6333 -63.8167 40° Northeast 460 529 36,000  Level Moncton Center
Mon 01:37:37 AM 50.7333 -63.6833 40° Northeast 460 529 36,000  Level Moncton Center
Mon 01:38:37 AM 50.8333 -63.5833 32° Northeast 480 552 36,000  Level Moncton Center
Mon 01:39:37 AM 50.9500 -63.4667 32° Northeast 460 529 36,000  Level Moncton Center
Mon 01:40:37 AM 51.0667 -63.4167 15° North 450 518 36,000  Level Moncton Center
Mon 01:41:37 AM 51.1833 -63.3333 24° Northeast 450 518 36,000  Level Moncton Center
Mon 01:42:37 AM 51.3000 -63.2500 24° Northeast 460 529 36,000  Level Moncton Center
Mon 01:43:37 AM 51.4333 -63.1833 17° North 440 506 36,000  Level Moncton Center
Mon 01:44:37 AM 51.5500 -63.1000 24° Northeast 450 518 36,000  Level Moncton Center
Mon 01:45:37 AM 51.6500 -63.0500 17° North 450 518 36,000  Level Moncton Center
Mon 01:46:37 AM 51.7833 -62.9667 21° North 450 518 36,000  Level Moncton Center
Mon 01:47:37 AM 51.9000 -62.9000 19° North 450 518 36,000  Level Moncton Center
Mon 01:48:37 AM 52.0000 -62.8167 27° Northeast 450 518 36,000  Level Moncton Center
Mon 01:49:37 AM 52.1167 -62.7667 15° North 450 518 36,000  Level Moncton Center
Mon 01:50:37 AM 52.2500 -62.6833 21° North 460 529 36,000  Level Moncton Center
Mon 01:51:37 AM 52.3667 -62.6167 19° North 460 529 36,000  Level Moncton Center
Mon 01:52:37 AM 52.4667 -62.5333 27° Northeast 460 529 36,000  Level Moncton Center
Mon 01:53:37 AM 52.6000 -62.4500 21° North 460 529 36,000  Level Moncton Center
Mon 01:54:37 AM 52.7167 -62.3833 19° North 460 529 36,000  Level Moncton Center
Mon 01:55:37 AM 52.8500 -62.3000 21° North 460 529 36,000  Level Moncton Center
Mon 01:56:37 AM 52.9667 -62.2333 19° North 460 529 36,000  Level Moncton Center
Mon 01:57:37 AM 53.0833 -62.1500 23° Northeast 470 541 36,000  Level Moncton Center
Mon 01:58:37 AM 53.2000 -62.0500 27° Northeast 470 541 36,000  Level Moncton Center
Mon 01:59:37 AM 53.3333 -61.9833 17° North 470 541 36,000  Level Moncton Center
Mon 02:00:37 AM 53.4500 -61.9000 23° Northeast 470 541 36,000  Level Moncton Center
Mon 02:01:37 AM 53.5667 -61.8333 19° North 470 541 36,000  Level Moncton Center
Mon 02:02:42 AM 53.7167 -61.7333 22° Northeast 470 541 36,000  Level Gander Center
Mon 02:03:42 AM 53.8333 -61.6500 23° Northeast 470 541 36,000  Level Gander Center
Mon 02:04:42 AM 53.9333 -61.6000 16° North 470 541 36,000  Level Gander Center
Mon 02:05:42 AM 54.0667 -61.5167 20° North 470 541 36,000  Level Gander Center
Mon 02:06:42 AM 54.1833 -61.4167 27° Northeast 470 541 36,000  Level Gander Center
Mon 02:07:42 AM 54.3167 -61.3333 20° North 470 541 36,000  Level Gander Center
Mon 02:08:42 AM 54.4167 -61.2500 26° Northeast 470 541 36,000  Level Gander Center
Mon 02:10:37 AM 54.6500 -61.0833 22° Northeast 470 541 36,000  Level Moncton Center
Mon 02:11:37 AM 54.7667 -61.0167 18° North 470 541 36,000  Level Moncton Center
Mon 02:12:37 AM 54.9000 -60.9167 23° Northeast 460 529 36,000  Level Moncton Center
Mon 02:13:37 AM 55.0167 -60.8167 26° Northeast 470 541 36,000  Level Moncton Center
Mon 02:14:37 AM 55.1333 -60.7500 18° North 470 541 36,000  Level Moncton Center
Mon 02:15:37 AM 55.2500 -60.6500 26° Northeast 480 552 36,000  Level Moncton Center
Mon 02:16:37 AM 55.3667 -60.5500 26° Northeast 480 552 36,000  Level Moncton Center
Mon 02:17:37 AM 55.5000 -60.4833 16° North 480 552 36,000  Level Moncton Center
Mon 02:18:37 AM 55.6333 -60.3833 23° Northeast 480 552 36,000  Level Moncton Center
Mon 02:19:37 AM 55.7500 -60.2833 26° Northeast 480 552 36,000  Level Moncton Center
Mon 02:20:37 AM 55.8833 -60.2000 19° North 480 552 36,000  Level Moncton Center
Mon 02:21:37 AM 56.0000 -60.1000 26° Northeast 480 552 36,000  Level Moncton Center
Mon 02:22:37 AM 56.1167 -60.0000 26° Northeast 480 552 36,000  Level Moncton Center
Mon 02:23:37 AM 56.2500 -59.9000 23° Northeast 480 552 36,000  Level Moncton Center
Mon 02:24:37 AM 56.3667 -59.8167 22° Northeast 490 564 36,000  Level Moncton Center
Mon 02:25:37 AM 56.5000 -59.7167 22° Northeast 490 564 36,000  Level Moncton Center
Mon 02:26:37 AM 56.6167 -59.6167 25° Northeast 490 564 36,000  Level Moncton Center
Mon 02:27:37 AM 56.7333 -59.5333 21° North 490 564 36,000  Level Moncton Center
Mon 02:28:37 AM 56.8667 -59.4333 22° Northeast 490 564 36,000  Level Moncton Center
Mon 02:29:37 AM 57.0000 -59.3167 25° Northeast 490 564 36,000  Level Moncton Center
Mon 02:30:37 AM 57.1000 -59.1833 36° Northeast 500 575 36,000  Level Moncton Center
Mon 02:31:42 AM 57.2000 -58.9667 50° Northeast 490 564 36,000  Level Gander Center
Mon 02:32:42 AM 57.3000 -58.7500 49° Northeast 500 575 36,000  Level Gander Center
Mon 02:33:42 AM 57.3500 -58.5333 67° East 510 587 36,000  Level Gander Center
Mon 02:34:42 AM 57.4000 -58.2833 70° East 520 598 36,000  Level Gander Center
Mon 02:35:42 AM 57.4667 -58.0333 64° Northeast 530 610 36,000  Level Gander Center
Mon 02:36:42 AM 57.5167 -57.7667 71° East 520 598 36,000  Level Gander Center
Mon 02:37:42 AM 57.5833 -57.5167 63° Northeast 530 610 36,000  Level Gander Center
Mon 02:38:42 AM 57.6333 -57.2667 69° East 520 598 36,000  Level Gander Center
Mon 02:39:42 AM 57.6833 -57.0000 71° East 520 598 36,000  Level Gander Center
Mon 02:40:42 AM 57.7500 -56.7500 63° Northeast 520 598 36,000  Level Gander Center
Mon 02:41:42 AM 57.8000 -56.5000 69° East 520 598 36,000  Level Gander Center
Mon 02:42:42 AM 57.8500 -56.2667 68° East 520 598 36,000  Level Gander Center
Mon 02:43:42 AM 57.9167 -56.0000 65° Northeast 520 598 36,000  Level Gander Center
Mon 02:44:42 AM 57.9500 -55.7500 76° East 520 598 36,000  Level Gander Center
Mon 02:45:42 AM 58.0167 -55.4833 65° Northeast 520 598 36,000  Level Gander Center
Mon 02:46:42 AM 58.0667 -55.2333 69° East 520 598 36,000  Level Gander Center
Mon 02:47:42 AM 58.1000 -54.9667 77° East 520 598 36,000  Level Gander Center
Mon 02:48:42 AM 58.1667 -54.7000 65° Northeast 520 598 36,000 Level Gander Center
Mon 02:51:00 AM 58.2337 -54.3620 69° East  Level FlightAware Approximate
Mon 02:58:00 AM 58.5348 -52.7683 70° East  Level FlightAware Approximate
Mon 02:59:00 AM 58.5762 -52.5384 71° East  Level FlightAware Approximate
Mon 03:00:00 AM 58.6172 -52.3080 71° East  Level FlightAware Approximate
Mon 03:01:00 AM 58.6577 -52.0770 71° East  Level FlightAware Approximate
Mon 03:02:00 AM 58.6979 -51.8455 71° East  Level FlightAware Approximate
Mon 03:03:00 AM 58.7376 -51.6135 72° East  Level FlightAware Approximate
Mon 03:04:00 AM 58.7769 -51.3809 72° East  Level FlightAware Approximate
Mon 03:05:00 AM 58.8158 -51.1478 72° East  Level FlightAware Approximate
Mon 03:06:00 AM 58.8543 -50.9142 72° East  Level FlightAware Approximate
Mon 03:07:00 AM 58.8923 -50.6801 72° East  Level FlightAware Approximate
Mon 03:08:00 AM 58.9300 -50.4455 73° East  Level FlightAware Approximate
Mon 03:09:00 AM 58.9672 -50.2103 73° East  Level FlightAware Approximate
Mon 03:10:00 AM 59.0057 -49.9760 65° Northeast  Level FlightAware Approximate
Mon 03:11:00 AM 59.0589 -49.7521 65° Northeast  Level FlightAware Approximate
Mon 03:12:00 AM 59.1117 -49.5276 65° Northeast  Level FlightAware Approximate
Mon 03:13:00 AM 59.1642 -49.3024 65° Northeast  Level FlightAware Approximate
Mon 03:14:00 AM 59.2162 -49.0765 66° East  Level FlightAware Approximate
Mon 03:15:00 AM 59.2678 -48.8499 66° East  Level FlightAware Approximate
Mon 03:16:00 AM 59.3192 -48.6227 65° Northeast  Level FlightAware Approximate
Mon 03:17:00 AM 59.3728 -48.3972 65° Northeast  Level FlightAware Approximate
Mon 03:18:00 AM 59.4260 -48.1710 65° Northeast  Level FlightAware Approximate
Mon 03:19:00 AM 59.4789 -47.9441 65° Northeast  Level FlightAware Approximate
Mon 03:20:00 AM 59.5313 -47.7164 65° Northeast  Level FlightAware Approximate
Mon 03:21:00 AM 59.5834 -47.4881 66° East  Level FlightAware Approximate
Mon 03:22:00 AM 59.6350 -47.2590 66° East  Level FlightAware Approximate
Mon 03:23:00 AM 59.6862 -47.0293 66° East  Level FlightAware Approximate
Mon 03:24:00 AM 59.7371 -46.7988 66° East  Level FlightAware Approximate
Mon 03:25:00 AM 59.7875 -46.5676 66° East  Level FlightAware Approximate
Mon 03:26:00 AM 59.8375 -46.3358 67° East  Level FlightAware Approximate
Mon 03:27:00 AM 59.8872 -46.1032 67° East  Level FlightAware Approximate
Mon 03:28:00 AM 59.9364 -45.8700 67° East  Level FlightAware Approximate
Mon 03:29:00 AM 59.9852 -45.6361 67° East  Level FlightAware Approximate
Mon 03:30:00 AM 60.0335 -45.4015 67° East  Level FlightAware Approximate
Mon 03:31:00 AM 60.0815 -45.1661 68° East  Level FlightAware Approximate
Mon 03:32:00 AM 60.1291 -44.9302 68° East  Level FlightAware Approximate
Mon 03:33:00 AM 60.1762 -44.6935 68° East  Level FlightAware Approximate
Mon 03:34:00 AM 60.2229 -44.4561 68° East  Level FlightAware Approximate
Mon 03:35:00 AM 60.2691 -44.2181 69° East  Level FlightAware Approximate
Mon 03:36:00 AM 60.3150 -43.9794 69° East  Level FlightAware Approximate
Mon 03:37:00 AM 60.3604 -43.7401 69° East  Level FlightAware Approximate
Mon 03:38:00 AM 60.4054 -43.5000 69° East  Level FlightAware Approximate
Mon 03:39:00 AM 60.4500 -43.2594 69° East  Level FlightAware Approximate
Mon 03:40:00 AM 60.4941 -43.0180 70° East  Level FlightAware Approximate
Mon 03:41:00 AM 60.5378 -42.7760 70° East  Level FlightAware Approximate
Mon 03:42:00 AM 60.5810 -42.5334 70° East  Level FlightAware Approximate
Mon 03:43:00 AM 60.6238 -42.2901 70° East  Level FlightAware Approximate
Mon 03:44:00 AM 60.6662 -42.0462 70° East  Level FlightAware Approximate
Mon 03:45:00 AM 60.7081 -41.8016 71° East  Level FlightAware Approximate
Mon 03:46:00 AM 60.7496 -41.5564 71° East  Level FlightAware Approximate
Mon 03:47:00 AM 60.7906 -41.3105 71° East  Level FlightAware Approximate
Mon 03:48:00 AM 60.8312 -41.0640 71° East  Level FlightAware Approximate
Mon 03:49:00 AM 60.8713 -40.8170 71° East  Level FlightAware Approximate
Mon 03:50:00 AM 60.9109 -40.5692 72° East  Level FlightAware Approximate
Mon 03:51:00 AM 60.9501 -40.3209 72° East  Level FlightAware Approximate
Mon 03:52:00 AM 60.9889 -40.0720 72° East  Level FlightAware Approximate
Mon 03:53:00 AM 61.0547 -39.8518 53° Northeast  Level FlightAware Approximate
Mon 03:54:00 AM 61.1313 -39.6427 53° Northeast  Level FlightAware Approximate
Mon 03:55:00 AM 61.2076 -39.4325 53° Northeast  Level FlightAware Approximate
Mon 03:56:00 AM 61.2836 -39.2213 53° Northeast  Level FlightAware Approximate
Mon 03:57:00 AM 61.3593 -39.0091 53° Northeast  Level FlightAware Approximate
Mon 03:58:00 AM 61.4346 -38.7959 53° Northeast  Level FlightAware Approximate
Mon 03:59:00 AM 61.5096 -38.5816 54° Northeast  Level FlightAware Approximate
Mon 04:00:00 AM 61.5842 -38.3663 54° Northeast  Level FlightAware Approximate
Mon 04:01:00 AM 61.6585 -38.1499 54° Northeast  Level FlightAware Approximate
Mon 04:02:00 AM 61.7325 -37.9326 54° Northeast  Level FlightAware Approximate
Mon 04:03:00 AM 61.8061 -37.7141 54° Northeast  Level FlightAware Approximate
Mon 04:04:00 AM 61.8794 -37.4947 55° Northeast  Level FlightAware Approximate
Mon 04:05:00 AM 61.9523 -37.2741 55° Northeast  Level FlightAware Approximate
Mon 04:06:00 AM 62.0249 -37.0526 55° Northeast  Level FlightAware Approximate
Mon 04:07:00 AM 62.0971 -36.8299 55° Northeast  Level FlightAware Approximate
Mon 04:08:00 AM 62.1689 -36.6062 55° Northeast  Level FlightAware Approximate
Mon 04:09:00 AM 62.2404 -36.3815 56° Northeast  Level FlightAware Approximate
Mon 04:10:00 AM 62.3115 -36.1557 56° Northeast  Level FlightAware Approximate
Mon 04:11:00 AM 62.3823 -35.9288 56° Northeast  Level FlightAware Approximate
Mon 04:12:00 AM 62.4527 -35.7008 56° Northeast  Level FlightAware Approximate
Mon 04:13:00 AM 62.5227 -35.4718 56° Northeast  Level FlightAware Approximate
Mon 04:14:00 AM 62.5923 -35.2417 57° Northeast  Level FlightAware Approximate
Mon 04:15:00 AM 62.6615 -35.0105 57° Northeast  Level FlightAware Approximate
Mon 04:16:00 AM 62.7304 -34.7782 57° Northeast  Level FlightAware Approximate
Mon 04:17:00 AM 62.7989 -34.5449 57° Northeast  Level FlightAware Approximate
Mon 04:18:00 AM 62.8670 -34.3104 57° Northeast  Level FlightAware Approximate
Mon 04:19:00 AM 62.9347 -34.0749 58° Northeast  Level FlightAware Approximate
Mon 04:20:00 AM 63.0020 -33.8383 58° Northeast  Level FlightAware Approximate
Mon 04:21:00 AM 63.0689 -33.6006 58° Northeast  Level FlightAware Approximate
Mon 04:22:00 AM 63.1354 -33.3618 58° Northeast  Level FlightAware Approximate
Mon 04:23:00 AM 63.2016 -33.1219 58° Northeast  Level FlightAware Approximate
Mon 04:24:00 AM 63.2673 -32.8809 59° Northeast  Level FlightAware Approximate
Mon 04:25:00 AM 63.3326 -32.6389 59° Northeast  Level FlightAware Approximate
Mon 04:26:00 AM 63.3974 -32.3957 59° Northeast  Level FlightAware Approximate
Mon 04:27:00 AM 63.4619 -32.1514 59° Northeast  Level FlightAware Approximate
Mon 04:28:00 AM 63.5260 -31.9060 60° Northeast  Level FlightAware Approximate
Mon 04:29:00 AM 63.5896 -31.6596 60° Northeast  Level FlightAware Approximate
Mon 04:30:00 AM 63.6528 -31.4120 60° Northeast  Level FlightAware Approximate
Mon 04:31:00 AM 63.7156 -31.1633 60° Northeast  Level FlightAware Approximate
Mon 04:32:00 AM 63.7779 -30.9135 60° Northeast  Level FlightAware Approximate
Mon 04:33:00 AM 63.8398 -30.6626 61° Northeast  Level FlightAware Approximate
Mon 04:34:00 AM 63.9013 -30.4107 61° Northeast  Level FlightAware Approximate
Mon 04:35:00 AM 63.9623 -30.1576 61° Northeast  Level FlightAware Approximate
Mon 04:36:00 AM 64.0143 -29.8951 73° East  Level FlightAware Approximate
Mon 04:37:00 AM 64.0517 -29.6182 73° East  Level FlightAware Approximate
Mon 04:38:00 AM 64.0886 -29.3406 73° East  Level FlightAware Approximate
Mon 04:39:00 AM 64.1249 -29.0623 73° East  Level FlightAware Approximate
Mon 04:40:00 AM 64.1608 -28.7832 73° East  Level FlightAware Approximate
Mon 04:41:00 AM 64.1960 -28.5035 74° East  Level FlightAware Approximate
Mon 04:42:00 AM 64.2308 -28.2230 74° East  Level FlightAware Approximate
Mon 04:43:00 AM 64.2650 -27.9418 74° East  Level FlightAware Approximate
Mon 04:44:00 AM 64.2986 -27.6599 74° East  Level FlightAware Approximate
Mon 04:45:00 AM 64.3318 -27.3774 75° East  Level FlightAware Approximate
Mon 04:46:00 AM 64.3643 -27.0941 75° East  Level FlightAware Approximate
Mon 04:47:00 AM 64.3963 -26.8102 75° East  Level FlightAware Approximate
Mon 04:48:00 AM 64.4278 -26.5257 76° East  Level FlightAware Approximate
Mon 04:49:00 AM 64.4587 -26.2405 76° East  Level FlightAware Approximate
Mon 04:50:00 AM 64.4891 -25.9546 76° East  Level FlightAware Approximate
Mon 04:51:00 AM 64.5189 -25.6682 76° East  Level FlightAware Approximate
Mon 04:52:00 AM 64.5482 -25.3811 77° East  Level FlightAware Approximate
Mon 04:53:00 AM 64.5769 -25.0934 77° East  Level FlightAware Approximate
Mon 04:54:00 AM 64.6050 -24.8051 77° East  Level FlightAware Approximate
Mon 04:55:00 AM 64.6326 -24.5162 77° East  Level FlightAware Approximate
Mon 04:56:00 AM 64.6596 -24.2267 78° East  Level FlightAware Approximate
Mon 04:57:00 AM 64.6860 -23.9366 78° East  Level FlightAware Approximate
Mon 04:58:00 AM 64.7119 -23.6460 78° East  Level FlightAware Approximate
Mon 04:59:00 AM 64.7374 -23.3550 78° East  Level FlightAware Approximate
Mon 05:00:00 AM 64.7634 -23.0639 78° East  Level FlightAware Approximate
Mon 05:01:00 AM 64.7888 -22.7722 78° East  Level FlightAware Approximate
Mon 05:02:00 AM 64.8137 -22.4800 79° East  Level FlightAware Approximate
Mon 05:03:00 AM 64.8380 -22.1873 79° East  Level FlightAware Approximate
Mon 05:04:00 AM 64.8617 -21.8940 79° East  Level FlightAware Approximate
Mon 05:05:00 AM 64.8848 -21.6003 79° East  Level FlightAware Approximate
Mon 05:06:00 AM 64.9073 -21.3060 80° East  Level FlightAware Approximate
Mon 05:07:00 AM 64.9293 -21.0112 80° East  Level FlightAware Approximate
Mon 05:08:00 AM 64.9507 -20.7160 80° East  Level FlightAware Approximate
Mon 05:09:00 AM 64.9715 -20.4203 80° East  Level FlightAware Approximate
Mon 05:10:00 AM 64.9917 -20.1242 81° East  Level FlightAware Approximate
Mon 05:11:00 AM 65.0044 -19.8258 87° East  Level FlightAware Approximate
Mon 05:12:00 AM 65.0114 -19.5260 87° East  Level FlightAware Approximate
Mon 05:13:00 AM 65.0178 -19.2260 87° East  Level FlightAware Approximate
Mon 05:14:00 AM 65.0236 -18.9259 87° East  Level FlightAware Approximate
Mon 05:15:00 AM 65.0288 -18.6257 88° East  Level FlightAware Approximate
Mon 05:16:00 AM 65.0335 -18.3254 86° East  Level FlightAware Approximate
Mon 05:17:00 AM 65.0411 -18.0253 86° East  Level FlightAware Approximate
Mon 05:18:00 AM 65.0480 -17.7251 87° East  Level FlightAware Approximate
Mon 05:19:00 AM 65.0543 -17.4247 87° East  Level FlightAware Approximate
Mon 05:20:00 AM 65.0601 -17.1242 87° East  Level FlightAware Approximate
Mon 05:21:00 AM 65.0652 -16.8235 88° East  Level FlightAware Approximate
Mon 05:22:00 AM 65.0697 -16.5228 88° East  Level FlightAware Approximate
Mon 05:23:00 AM 65.0736 -16.2219 88° East  Level FlightAware Approximate
Mon 05:24:00 AM 65.0770 -15.9210 88° East  Level FlightAware Approximate
Mon 05:25:00 AM 65.0797 -15.6200 89° East  Level FlightAware Approximate
Mon 05:26:00 AM 65.0818 -15.3189 89° East  Level FlightAware Approximate
Mon 05:27:00 AM 65.0833 -15.0178 89° East  Level FlightAware Approximate
Mon 05:28:00 AM 65.0831 -14.7167 90° East  Level FlightAware Approximate
Mon 05:29:00 AM 65.0822 -14.4156 90° East  Level FlightAware Approximate
Mon 05:30:00 AM 65.0808 -14.1145 91° East  Level FlightAware Approximate
Mon 05:31:00 AM 65.0787 -13.8134 91° East  Level FlightAware Approximate
Mon 05:32:00 AM 65.0760 -13.5125 91° East  Level FlightAware Approximate
Mon 05:33:00 AM 65.0727 -13.2115 91° East  Level FlightAware Approximate
Mon 05:34:00 AM 65.0689 -12.9107 92° East  Level FlightAware Approximate
Mon 05:35:00 AM 65.0644 -12.6099 92° East  Level FlightAware Approximate
Mon 05:36:00 AM 65.0593 -12.3093 92° East  Level FlightAware Approximate
Mon 05:37:00 AM 65.0536 -12.0088 92° East  Level FlightAware Approximate
Mon 05:38:00 AM 65.0473 -11.7084 93° East  Level FlightAware Approximate
Mon 05:39:00 AM 65.0404 -11.4081 93° East  Level FlightAware Approximate
Mon 05:40:00 AM 65.0329 -11.1081 93° East  Level FlightAware Approximate
Mon 05:41:00 AM 65.0248 -10.8082 94° East  Level FlightAware Approximate
Mon 05:42:00 AM 65.0161 -10.5085 94° East  Level FlightAware Approximate
Mon 05:43:00 AM 65.0068 -10.2090 94° East  Level FlightAware Approximate
Mon 05:44:00 AM 65.0030 -9.9096 85° East  Level FlightAware Approximate
Mon 05:45:00 AM 65.0126 -9.6102 86° East  Level FlightAware Approximate
Mon 05:46:00 AM 65.0215 -9.3106 86° East  Level FlightAware Approximate
Mon 05:47:00 AM 65.0298 -9.0108 86° East  Level FlightAware Approximate
Mon 05:48:00 AM 65.0376 -8.7107 86° East  Level FlightAware Approximate
Mon 05:49:00 AM 65.0447 -8.4106 87° East  Level FlightAware Approximate
Mon 05:50:00 AM 65.0513 -8.1103 87° East  Level FlightAware Approximate
Mon 05:51:00 AM 65.0572 -7.8098 87° East  Level FlightAware Approximate
Mon 05:52:00 AM 65.0626 -7.5092 87° East  Level FlightAware Approximate
Mon 05:53:00 AM 65.0673 -7.2085 88° East  Level FlightAware Approximate
Mon 05:54:00 AM 65.0714 -6.9077 88° East  Level FlightAware Approximate
Mon 05:55:00 AM 65.0750 -6.6068 88° East  Level FlightAware Approximate
Mon 05:56:00 AM 65.0779 -6.3058 89° East  Level FlightAware Approximate
Mon 05:57:00 AM 65.0802 -6.0048 89° East  Level FlightAware Approximate
Mon 05:58:00 AM 65.0819 -5.7037 89° East  Level FlightAware Approximate
Mon 05:59:00 AM 65.0830 -5.4026 89° East  Level FlightAware Approximate
Mon 06:00:00 AM 65.0835 -5.1015 90° East  Level FlightAware Approximate
Mon 06:01:00 AM 65.0834 -4.8004 90° East  Level FlightAware Approximate
Mon 06:02:00 AM 65.0827 -4.4992 90° East  Level FlightAware Approximate
Mon 06:03:00 AM 65.0814 -4.1981 90° East  Level FlightAware Approximate
Mon 06:04:00 AM 65.0795 -3.8971 91° East  Level FlightAware Approximate
Mon 06:05:00 AM 65.0770 -3.5961 91° East  Level FlightAware Approximate
Mon 06:06:00 AM 65.0739 -3.2951 91° East  Level FlightAware Approximate
Mon 06:07:00 AM 65.0702 -2.9942 92° East  Level FlightAware Approximate
Mon 06:08:00 AM 65.0658 -2.6935 92° East  Level FlightAware Approximate
Mon 06:09:00 AM 65.0609 -2.3928 92° East  Level FlightAware Approximate
Mon 06:10:00 AM 65.0554 -2.0922 92° East  Level FlightAware Approximate
Mon 06:11:00 AM 65.0492 -1.7918 93° East  Level FlightAware Approximate
Mon 06:12:00 AM 65.0425 -1.4915 93° East  Level FlightAware Approximate
Mon 06:13:00 AM 65.0351 -1.1914 93° East  Level FlightAware Approximate
Mon 06:14:00 AM 65.0272 -0.8915 93° East  Level FlightAware Approximate
Mon 06:15:00 AM 65.0186 -0.5917 94° East  Level FlightAware Approximate
Mon 06:16:00 AM 65.0095 -0.2921 94° East  Level FlightAware Approximate
Mon 06:17:00 AM 64.9995 0.0072 99° East  Level FlightAware Approximate
Mon 06:18:00 AM 64.9803 0.3037 99° East  Level FlightAware Approximate
Mon 06:19:00 AM 64.9604 0.5999 99° East  Level FlightAware Approximate
Mon 06:20:00 AM 64.9399 0.8956 99° East  Level FlightAware Approximate
Mon 06:21:00 AM 64.9189 1.1909 99° East  Level FlightAware Approximate
Mon 06:22:00 AM 64.8973 1.4856 100° East  Level FlightAware Approximate
Mon 06:23:00 AM 64.8751 1.7799 100° East  Level FlightAware Approximate
Mon 06:24:00 AM 64.8523 2.0737 100° East  Level FlightAware Approximate
Mon 06:25:00 AM 64.8289 2.3670 100° East  Level FlightAware Approximate
Mon 06:26:00 AM 64.8050 2.6598 101° East  Level FlightAware Approximate
Mon 06:27:00 AM 64.7804 2.9521 101° East  Level FlightAware Approximate
Mon 06:28:00 AM 64.7553 3.2438 101° East  Level FlightAware Approximate
Mon 06:29:00 AM 64.7297 3.5350 102° East  Level FlightAware Approximate
Mon 06:30:00 AM 64.7035 3.8256 102° East  Level FlightAware Approximate
Mon 06:31:00 AM 64.6767 4.1157 102° East  Level FlightAware Approximate
Mon 06:32:00 AM 64.6493 4.4051 102° East  Level FlightAware Approximate
Mon 06:33:00 AM 64.6214 4.6940 103° East  Level FlightAware Approximate
Mon 06:34:00 AM 64.5928 4.9823 103° East  Level FlightAware Approximate
Mon 06:35:00 AM 64.5638 5.2700 103° East  Level FlightAware Approximate
Mon 06:36:00 AM 64.5342 5.5570 103° East  Level FlightAware Approximate
Mon 06:37:00 AM 64.5040 5.8435 104° East  Level FlightAware Approximate
Mon 06:38:00 AM 64.4733 6.1293 104° East  Level FlightAware Approximate
Mon 06:39:00 AM 64.4420 6.4144 104° East  Level FlightAware Approximate
Mon 06:40:00 AM 64.4102 6.6989 104° East  Level FlightAware Approximate
Mon 06:41:00 AM 64.3778 6.9827 105° East  Level FlightAware Approximate
Mon 06:42:00 AM 64.3448 7.2659 105° East  Level FlightAware Approximate
Mon 06:43:00 AM 64.3114 7.5483 105° East  Level FlightAware Approximate
Mon 06:44:00 AM 64.2774 7.8301 105° East  Level FlightAware Approximate
Mon 06:45:00 AM 64.2428 8.1112 106° East  Level FlightAware Approximate
Mon 06:46:00 AM 64.2077 8.3915 106° East  Level FlightAware Approximate
Mon 06:47:00 AM 64.1721 8.6712 106° East  Level FlightAware Approximate
Mon 06:48:00 AM 64.1359 8.9501 106° East  Level FlightAware Approximate
Mon 06:49:00 AM 64.0992 9.2283 107° East  Level FlightAware Approximate
Mon 06:50:00 AM 64.0620 9.5058 107° East  Level FlightAware Approximate
Mon 06:51:00 AM 64.0242 9.7825 107° East  Level FlightAware Approximate
Mon 06:52:00 AM 63.9860 10.0585 107° East  Level FlightAware Approximate
Mon 06:53:00 AM 63.9472 10.3337 108° East  Level FlightAware Approximate
Mon 06:54:00 AM 63.9078 10.6081 108° East  Level FlightAware Approximate
Mon 06:55:00 AM 63.8680 10.8818 108° East  Level FlightAware Approximate
Mon 06:56:00 AM 63.8276 11.1547 108° East  Level FlightAware Approximate
Mon 06:57:00 AM 63.7868 11.4268 109° East  Level FlightAware Approximate
Mon 06:58:00 AM 63.7454 11.6981 109° East  Level FlightAware Approximate
Mon 06:59:00 AM 63.7035 11.9686 109° East  Level FlightAware Approximate
Mon 07:00:00 AM 63.6611 12.2383 109° East  Level FlightAware Approximate
Mon 07:01:00 AM 63.6182 12.5072 110° East  Level FlightAware Approximate
Mon 07:02:00 AM 63.5748 12.7753 110° East  Level FlightAware Approximate
Mon 07:03:00 AM 63.5309 13.0425 110° East  Level FlightAware Approximate
Mon 07:03:13 AM 61.4187 21.2045 112° Southeast 487 560 37,000  Level FlightAware ADS-B
Mon 07:04:55 AM 61.3341 21.6490 112° Southeast 488 562 37,000  Level FlightAware ADS-B
Mon 07:06:13 AM 61.2696 21.9816 112° Southeast 492 566 37,000  Level FlightAware ADS-B
Mon 07:08:17 AM 61.1609 22.5291 113° Southeast 491 565 37,000  Level FlightAware ADS-B
Mon 07:09:26 AM 61.1020 22.8202 113° Southeast 489 563 37,000  Level FlightAware ADS-B
Mon 07:10:25 AM 61.0522 23.0629 113° Southeast 491 565 37,000  Level FlightAware ADS-B
Mon 07:11:17 AM 61.0030 23.2999 113° Southeast 489 563 37,000  Level FlightAware ADS-B
Mon 07:11:57 AM 60.9671 23.4706 113° Southeast 488 562 37,000  Level FlightAware ADS-B
Mon 07:12:28 AM 60.9406 23.5964 114° Southeast 488 562 37,000  Level FlightAware ADS-B
Mon 07:13:02 AM 60.9121 23.7300 114° Southeast 488 562 37,000  Level FlightAware ADS-B
Mon 07:13:55 AM 60.8638 23.9557 114° Southeast 489 563 37,000  Level FlightAware ADS-B
Mon 07:14:27 AM 60.8318 24.1037 114° Southeast 489 563 37,000  Level FlightAware ADS-B
Mon 07:14:58 AM 60.8031 24.2349 114° Southeast 489 563 37,000  Level FlightAware ADS-B
Mon 07:15:57 AM 60.7483 24.4847 114° Southeast 488 562 37,000  Level FlightAware ADS-B
Mon 07:16:36 AM 60.7119 24.6488 114° Southeast 487 560 37,000  Level FlightAware ADS-B
Mon 07:17:17 AM 60.6743 24.8162 115° Southeast 486 559 37,000  Level FlightAware ADS-B
Mon 07:17:56 AM 60.6393 24.9716 115° Southeast 486 559 37,000  Level FlightAware ADS-B
Mon 07:18:26 AM 60.6096 25.1023 115° Southeast 486 559 37,000  Level FlightAware ADS-B
Mon 07:19:03 AM 60.5752 25.2534 115° Southeast 485 558 37,000  Level FlightAware ADS-B
Mon 07:19:48 AM 60.5330 25.4367 115° Southeast 485 558 37,000  Level FlightAware ADS-B
Mon 07:20:48 AM 60.4749 25.6867 115° Southeast 487 560 37,000  Level FlightAware ADS-B
Mon 07:21:25 AM 60.4388 25.8403 116° Southeast 489 563 37,000  Level FlightAware ADS-B
Mon 07:21:55 AM 60.4104 25.9606 116° Southeast 489 563 37,000  Level FlightAware ADS-B
Mon 07:22:27 AM 60.3793 26.0914 116° Southeast 486 559 37,000  Level FlightAware ADS-B
Mon 07:24:14 AM 60.2745 26.5269 116° Southeast 487 560 37,000  Level FlightAware ADS-B
Mon 07:25:07 AM 60.2217 26.7427 116° Southeast 487 560 37,000  Level FlightAware ADS-B
Mon 07:25:46 AM 60.1902 26.8773 112° Southeast 486 559 37,000  Level FlightAware ADS-B
Mon 07:27:07 AM 60.1416 27.2514 101° East 488 562 37,000  Level FlightAware ADS-B
Mon 07:27:37 AM 60.1282 27.3882 101° East 488 562 37,000  Level FlightAware ADS-B
Mon 07:28:36 AM 60.1021 27.6467 102° East 488 562 37,000  Level FlightAware ADS-B
Mon 07:29:17 AM 60.0836 27.8281 102° East 487 560 37,000  Level FlightAware ADS-B
Mon 07:31:00 AM 59.9586 28.1850 125° Southeast  Level Estimated
Mon 07:32:00 AM 59.8854 28.3917 125° Southeast  Level Estimated
Mon 07:33:00 AM 59.8118 28.5975 125° Southeast  Level Estimated
Mon 07:34:00 AM 59.7380 28.8024 126° Southeast  Level Estimated
Mon 07:35:00 AM 59.6638 29.0064 126° Southeast  Level Estimated
Mon 07:36:00 AM 59.5892 29.2094 126° Southeast  Level Estimated
Mon 07:37:00 AM 59.5144 29.4116 126° Southeast  Level Estimated
Mon 07:38:00 AM 59.4393 29.6129 126° Southeast  Level Estimated
Mon 07:39:00 AM 59.3639 29.8133 126° Southeast  Level Estimated
Mon 07:40:00 AM 59.2881 30.0128 127° Southeast  Level Estimated
Mon 07:41:00 AM 59.2121 30.2114 127° Southeast  Level Estimated
Mon 07:42:00 AM 59.1357 30.4091 127° Southeast  Level Estimated
Mon 07:43:00 AM 59.0591 30.6059 127° Southeast  Level Estimated
Mon 07:44:00 AM 58.9821 30.8019 127° Southeast  Level Estimated
Mon 07:45:00 AM 58.9049 30.9970 127° Southeast  Level Estimated
Mon 07:46:00 AM 58.8273 31.1912 128° Southeast  Level Estimated
Mon 07:47:00 AM 58.7495 31.3845 128° Southeast  Level Estimated
Mon 07:48:00 AM 58.6714 31.5770 128° Southeast  Level Estimated
Mon 07:49:00 AM 58.5930 31.7686 128° Southeast  Level Estimated
Mon 07:50:00 AM 58.5143 31.9593 128° Southeast  Level Estimated
Mon 07:51:00 AM 58.4353 32.1492 128° Southeast  Level Estimated
Mon 07:52:00 AM 58.3561 32.3383 129° Southeast  Level Estimated
Mon 07:53:00 AM 58.2771 32.5273 128° Southeast  Level FlightAware Approximate
Mon 07:54:00 AM 58.1978 32.7154 129° Southeast  Level FlightAware Approximate
Mon 07:55:00 AM 58.1183 32.9027 129° Southeast  Level FlightAware Approximate
Mon 07:56:00 AM 58.0384 33.0892 129° Southeast  Level FlightAware Approximate
Mon 07:57:00 AM 57.9583 33.2748 129° Southeast  Level FlightAware Approximate
Mon 07:58:00 AM 57.8779 33.4596 129° Southeast  Level FlightAware Approximate
Mon 07:59:00 AM 57.7973 33.6436 129° Southeast  Level FlightAware Approximate
Mon 08:00:00 AM 57.7164 33.8268 130° Southeast  Level FlightAware Approximate
Mon 08:01:00 AM 57.6352 34.0091 130° Southeast  Level FlightAware Approximate
Mon 08:02:00 AM 57.5538 34.1906 130° Southeast  Level FlightAware Approximate
Mon 08:03:00 AM 57.4721 34.3714 130° Southeast  Level FlightAware Approximate
Mon 08:04:00 AM 57.3940 34.5578 128° Southeast  Level FlightAware Approximate
Mon 08:05:00 AM 57.3115 34.7364 131° Southeast  Level FlightAware Approximate
Mon 08:06:00 AM 57.2297 34.9156 127° Southeast  Level FlightAware Approximate
Mon 08:07:00 AM 57.1568 35.1030 133° Southeast  Level FlightAware Approximate
Mon 08:08:00 AM 57.0733 35.2790 131° Southeast  Level FlightAware Approximate
Mon 08:09:00 AM 56.9903 35.4553 129° Southeast  Level FlightAware Approximate
Mon 08:10:00 AM 56.9104 35.6359 129° Southeast  Level FlightAware Approximate
Mon 08:11:00 AM 56.8302 35.8158 129° Southeast  Level FlightAware Approximate
Mon 08:12:00 AM 56.7485 35.9930 131° Southeast  Level FlightAware Approximate
Mon 08:13:00 AM 56.6658 36.1682 131° Southeast  Level FlightAware Approximate
Mon 08:14:00 AM 56.5828 36.3426 131° Southeast  Level FlightAware Approximate
Mon 08:15:00 AM 56.4996 36.5163 131° Southeast  Level FlightAware Approximate
Mon 08:16:00 AM 56.4179 36.6920 130° Southeast  Level FlightAware Approximate
Mon 08:17:00 AM 56.3345 36.8646 132° Southeast  Level FlightAware Approximate
Mon 08:18:00 AM 56.2496 37.0344 132° Southeast  Level FlightAware Approximate
Mon 08:19:00 AM 56.1620 37.1994 134° Southeast  Level FlightAware Approximate
Mon 08:20:00 AM 56.0803 37.3727 132° Southeast  Level FlightAware Approximate
Mon 08:21:00 AM 55.9726 37.4146 127° Southeast  Level Estimated
Mon 08:22:00 AM 55.9726 37.4146 127° Southeast  Level Estimated
Mon 08:23:00 AM 55.9726 37.4146 127° Southeast  Level Estimated
Mon 08:24:00 AM 55.9726 37.4146 127° Southeast  Level Estimated
Mon 08:25:00 AM 55.9726 37.4146 127° Southeast  Level Estimated
Mon 08:26:00 AM 55.9726 37.4146 127° Southeast  Level Estimated
Mon 08:27:00 AM 55.9726 37.4146 127° Southeast  Level Estimated
Mon 08:28:00 AM 55.9726 37.4146 127° Southeast  Level Estimated
Mon 08:29:00 AM 55.9726 37.4146 127° Southeast  Level Estimated
Mon 08:30:00 AM 55.9726 37.4146 127° Southeast  Level Estimated
Mon 08:31:00 AM 55.9726 37.4146 127° Southeast  Level Estimated
Mon 08:32:00 AM 55.9726 37.4146 127° Southeast  Level Estimated
Mon 08:33:00 AM 55.9726 37.4146 127° Southeast  Level Estimated
Mon 08:34:00 AM 55.9726 37.4146 127° Southeast  Level Estimated
Mon 08:35:00 AM 55.9726 37.4146 127° Southeast  Level Estimated
Mon 08:36:00 AM 55.9726 37.4146 127° Southeast  Level Estimated
Mon 08:37:00 AM 55.9726 37.4146 127° Southeast  Level Estimated
Mon 08:38:00 AM 55.9726 37.4146 127° Southeast  Level Estimated
Mon 08:39:00 AM 55.9726 37.4146 127° Southeast  Level Estimated
Mon 08:40:00 AM 55.9726 37.4146 127° Southeast  Level Estimated
Mon 08:41:00 AM 55.9726 37.4146 127° Southeast  Level Estimated
Mon 08:42:00 AM 55.9726 37.4146 127° Southeast  Level Estimated
Mon 08:43:00 AM 55.9726 37.4146 127° Southeast  Level Estimated
Mon 08:44:00 AM 55.9726 37.4146 127° Southeast  Level Estimated
Mon 08:45:00 AM 55.9726 37.4146 127° Southeast  Level Estimated
Mon 08:46:00 AM 55.9726 37.4146 127° Southeast  Level Estimated
Mon 08:47:00 AM 55.9726 37.4146 127° Southeast  Level Estimated

Login

Don't have an account? Register now (free) for customized features, flight alerts, and more!